sensor_id;sensor_type;location;lat;lon;timestamp;pressure;altitude;pressure_sealevel;temperature;humidity
44457;BME280;30159;49.316;8.558;2022-08-19T00:01:55;99948.91;;;22.30;89.80
44457;BME280;30159;49.316;8.558;2022-08-19T00:04:27;99944.94;;;22.27;89.63
44457;BME280;30159;49.316;8.558;2022-08-19T00:06:54;99940.97;;;22.25;89.66
44457;BME280;30159;49.316;8.558;2022-08-19T00:09:22;99938.97;;;22.22;90.28
44457;BME280;30159;49.316;8.558;2022-08-19T00:11:49;99931.88;;;22.21;90.01
44457;BME280;30159;49.316;8.558;2022-08-19T00:14:17;99935.47;;;22.25;90.17
44457;BME280;30159;49.316;8.558;2022-08-19T00:16:46;99918.16;;;22.21;90.00
44457;BME280;30159;49.316;8.558;2022-08-19T00:19:13;99928.44;;;22.27;90.25
44457;BME280;30159;49.316;8.558;2022-08-19T00:21:42;99929.13;;;22.21;90.03
44457;BME280;30159;49.316;8.558;2022-08-19T00:24:10;99874.38;;;21.82;90.01
44457;BME280;30159;49.316;8.558;2022-08-19T00:26:39;99905.94;;;21.95;90.17
44457;BME280;30159;49.316;8.558;2022-08-19T00:29:12;99942.19;;;22.27;89.89
44457;BME280;30159;49.316;8.558;2022-08-19T00:31:40;99939.41;;;22.24;90.06
44457;BME280;30159;49.316;8.558;2022-08-19T00:34:08;99942.94;;;22.24;90.29
44457;BME280;30159;49.316;8.558;2022-08-19T00:36:34;99932.72;;;22.25;89.97
44457;BME280;30159;49.316;8.558;2022-08-19T00:39:04;99870.16;;;21.88;89.94
44457;BME280;30159;49.316;8.558;2022-08-19T00:41:30;99920.56;;;22.26;89.96
44457;BME280;30159;49.316;8.558;2022-08-19T00:44:00;99913.94;;;22.27;89.82
44457;BME280;30159;49.316;8.558;2022-08-19T00:46:27;99913.25;;;22.34;90.09
44457;BME280;30159;49.316;8.558;2022-08-19T00:48:54;99927.53;;;22.46;89.51
44457;BME280;30159;49.316;8.558;2022-08-19T00:51:22;99921.00;;;22.55;89.12
44457;BME280;30159;49.316;8.558;2022-08-19T00:53:50;99918.56;;;22.49;89.41
44457;BME280;30159;49.316;8.558;2022-08-19T00:56:18;99931.59;;;22.56;89.62
44457;BME280;30159;49.316;8.558;2022-08-19T00:58:44;99937.19;;;22.63;88.83
44457;BME280;30159;49.316;8.558;2022-08-19T01:01:11;99931.66;;;22.60;88.56
44457;BME280;30159;49.316;8.558;2022-08-19T01:03:39;99922.19;;;22.57;88.91
44457;BME280;30159;49.316;8.558;2022-08-19T01:06:06;99917.06;;;22.56;88.77
44457;BME280;30159;49.316;8.558;2022-08-19T01:08:33;99885.53;;;22.19;89.26
44457;BME280;30159;49.316;8.558;2022-08-19T01:11:00;99906.81;;;22.26;90.02
44457;BME280;30159;49.316;8.558;2022-08-19T01:13:30;99916.72;;;22.30;89.42
44457;BME280;30159;49.316;8.558;2022-08-19T01:16:00;99938.66;;;22.27;90.37
44457;BME280;30159;49.316;8.558;2022-08-19T01:18:29;99858.19;;;21.77;90.33
44457;BME280;30159;49.316;8.558;2022-08-19T01:20:58;99931.38;;;22.15;91.00
44457;BME280;30159;49.316;8.558;2022-08-19T01:23:28;99931.75;;;22.14;91.02
44457;BME280;30159;49.316;8.558;2022-08-19T01:26:10;99925.88;;;22.15;91.04
44457;BME280;30159;49.316;8.558;2022-08-19T01:28:37;99921.19;;;22.16;91.02
44457;BME280;30159;49.316;8.558;2022-08-19T01:31:04;99926.25;;;22.14;91.04
44457;BME280;30159;49.316;8.558;2022-08-19T01:33:31;99924.69;;;22.13;91.17
44457;BME280;30159;49.316;8.558;2022-08-19T01:36:04;99928.97;;;22.10;91.32
44457;BME280;30159;49.316;8.558;2022-08-19T01:38:35;99930.53;;;22.11;91.19
44457;BME280;30159;49.316;8.558;2022-08-19T01:41:03;99916.75;;;22.07;91.46
44457;BME280;30159;49.316;8.558;2022-08-19T01:43:29;99915.50;;;22.05;91.42
44457;BME280;30159;49.316;8.558;2022-08-19T01:45:56;99906.50;;;22.04;91.66
44457;BME280;30159;49.316;8.558;2022-08-19T01:48:22;99919.38;;;22.00;91.80
44457;BME280;30159;49.316;8.558;2022-08-19T01:50:49;99918.69;;;22.07;92.16
44457;BME280;30159;49.316;8.558;2022-08-19T01:53:16;99925.41;;;22.09;91.17
44457;BME280;30159;49.316;8.558;2022-08-19T01:55:44;99920.41;;;22.15;91.47
44457;BME280;30159;49.316;8.558;2022-08-19T01:58:13;99926.38;;;22.21;91.23
44457;BME280;30159;49.316;8.558;2022-08-19T02:00:41;99892.75;;;22.04;91.04
44457;BME280;30159;49.316;8.558;2022-08-19T02:03:08;99940.75;;;22.37;90.11
44457;BME280;30159;49.316;8.558;2022-08-19T02:05:36;99940.44;;;22.42;90.61
44457;BME280;30159;49.316;8.558;2022-08-19T02:08:03;99936.19;;;22.45;90.07
44457;BME280;30159;49.316;8.558;2022-08-19T02:10:30;99938.97;;;22.48;89.94
44457;BME280;30159;49.316;8.558;2022-08-19T02:12:58;99938.63;;;22.54;89.66
44457;BME280;30159;49.316;8.558;2022-08-19T02:15:25;99935.78;;;22.46;89.49
44457;BME280;30159;49.316;8.558;2022-08-19T02:17:51;99934.25;;;22.49;89.61
44457;BME280;30159;49.316;8.558;2022-08-19T02:20:18;99946.25;;;22.37;89.87
44457;BME280;30159;49.316;8.558;2022-08-19T02:22:45;99944.38;;;22.18;90.50
44457;BME280;30159;49.316;8.558;2022-08-19T02:25:12;99923.97;;;21.93;91.19
44457;BME280;30159;49.316;8.558;2022-08-19T02:27:39;99954.16;;;22.16;91.01
44457;BME280;30159;49.316;8.558;2022-08-19T02:30:11;99958.78;;;22.12;91.34
44457;BME280;30159;49.316;8.558;2022-08-19T02:32:38;99947.75;;;22.08;91.09
44457;BME280;30159;49.316;8.558;2022-08-19T02:35:06;99936.81;;;22.12;91.02
44457;BME280;30159;49.316;8.558;2022-08-19T02:37:33;99937.56;;;22.08;91.34
44457;BME280;30159;49.316;8.558;2022-08-19T02:40:17;99938.66;;;22.04;91.38
44457;BME280;30159;49.316;8.558;2022-08-19T02:42:44;99938.31;;;22.05;91.23
44457;BME280;30159;49.316;8.558;2022-08-19T02:45:13;99942.94;;;22.01;91.58
44457;BME280;30159;49.316;8.558;2022-08-19T02:47:40;99950.81;;;22.03;91.37
44457;BME280;30159;49.316;8.558;2022-08-19T02:50:07;99938.13;;;21.95;91.86
44457;BME280;30159;49.316;8.558;2022-08-19T02:52:34;99943.69;;;21.98;91.58
44457;BME280;30159;49.316;8.558;2022-08-19T02:55:02;99942.97;;;22.05;91.58
44457;BME280;30159;49.316;8.558;2022-08-19T02:57:30;99939.94;;;22.10;91.87
44457;BME280;30159;49.316;8.558;2022-08-19T02:59:58;99866.31;;;21.70;91.56
44457;BME280;30159;49.316;8.558;2022-08-19T03:02:26;99929.84;;;22.18;91.46
44457;BME280;30159;49.316;8.558;2022-08-19T03:04:52;99899.78;;;22.02;91.72
44457;BME280;30159;49.316;8.558;2022-08-19T03:07:19;99912.66;;;21.98;92.66
44457;BME280;30159;49.316;8.558;2022-08-19T03:09:45;99916.81;;;21.88;93.42
44457;BME280;30159;49.316;8.558;2022-08-19T03:12:12;99918.66;;;21.80;94.01
44457;BME280;30159;49.316;8.558;2022-08-19T03:14:39;99851.47;;;21.28;94.64
44457;BME280;30159;49.316;8.558;2022-08-19T03:17:06;99910.00;;;21.55;95.65
44457;BME280;30159;49.316;8.558;2022-08-19T03:19:34;99916.22;;;21.52;95.77
44457;BME280;30159;49.316;8.558;2022-08-19T03:22:01;99920.84;;;21.48;96.52
44457;BME280;30159;49.316;8.558;2022-08-19T03:24:27;99928.22;;;21.44;96.25
44457;BME280;30159;49.316;8.558;2022-08-19T03:26:54;99928.50;;;21.39;96.41
44457;BME280;30159;49.316;8.558;2022-08-19T03:29:23;99928.06;;;21.37;96.50
44457;BME280;30159;49.316;8.558;2022-08-19T03:31:50;99939.47;;;21.39;96.53
44457;BME280;30159;49.316;8.558;2022-08-19T03:34:20;99871.53;;;20.90;96.56
44457;BME280;30159;49.316;8.558;2022-08-19T03:36:48;99929.47;;;21.27;96.30
44457;BME280;30159;49.316;8.558;2022-08-19T03:39:15;99928.25;;;21.24;96.10
44457;BME280;30159;49.316;8.558;2022-08-19T03:41:44;99938.91;;;21.30;96.34
44457;BME280;30159;49.316;8.558;2022-08-19T03:44:11;99952.31;;;21.35;96.48
44457;BME280;30159;49.316;8.558;2022-08-19T03:46:37;99951.09;;;21.32;96.76
44457;BME280;30159;49.316;8.558;2022-08-19T03:49:04;99945.63;;;21.32;96.24
44457;BME280;30159;49.316;8.558;2022-08-19T03:51:33;99947.13;;;21.30;96.56
44457;BME280;30159;49.316;8.558;2022-08-19T03:54:07;99948.31;;;21.29;96.51
44457;BME280;30159;49.316;8.558;2022-08-19T03:56:35;99945.47;;;21.25;96.71
44457;BME280;30159;49.316;8.558;2022-08-19T03:59:03;99944.69;;;21.24;96.71
44457;BME280;30159;49.316;8.558;2022-08-19T04:01:29;99943.91;;;21.24;96.76
44457;BME280;30159;49.316;8.558;2022-08-19T04:03:57;99941.22;;;21.27;96.49
44457;BME280;30159;49.316;8.558;2022-08-19T04:06:26;99947.13;;;21.30;95.80
44457;BME280;30159;49.316;8.558;2022-08-19T04:08:55;99955.72;;;21.28;95.74
44457;BME280;30159;49.316;8.558;2022-08-19T04:11:24;99951.06;;;21.29;96.08
44457;BME280;30159;49.316;8.558;2022-08-19T04:13:52;99948.31;;;21.29;95.74
44457;BME280;30159;49.316;8.558;2022-08-19T04:16:19;99941.22;;;21.27;95.57
44457;BME280;30159;49.316;8.558;2022-08-19T04:18:47;99935.28;;;21.25;96.15
44457;BME280;30159;49.316;8.558;2022-08-19T04:21:16;99938.41;;;21.24;96.34
44457;BME280;30159;49.316;8.558;2022-08-19T04:23:43;99945.44;;;21.21;96.32
44457;BME280;30159;49.316;8.558;2022-08-19T04:26:12;99927.53;;;21.08;96.25
44457;BME280;30159;49.316;8.558;2022-08-19T04:28:42;99950.91;;;21.21;96.16
44457;BME280;30159;49.316;8.558;2022-08-19T04:31:13;99955.22;;;21.22;96.34
44457;BME280;30159;49.316;8.558;2022-08-19T04:33:40;99951.69;;;21.22;96.12
44457;BME280;30159;49.316;8.558;2022-08-19T04:36:07;99950.03;;;21.17;96.08
44457;BME280;30159;49.316;8.558;2022-08-19T04:38:35;99938.63;;;21.15;96.26
44457;BME280;30159;49.316;8.558;2022-08-19T04:41:02;99946.44;;;21.13;96.45
44457;BME280;30159;49.316;8.558;2022-08-19T04:43:47;99932.72;;;21.13;96.30
44457;BME280;30159;49.316;8.558;2022-08-19T04:46:15;99943.34;;;21.15;96.07
44457;BME280;30159;49.316;8.558;2022-08-19T04:48:43;99944.56;;;21.17;96.15
44457;BME280;30159;49.316;8.558;2022-08-19T04:51:11;99783.84;;;20.12;95.96
44457;BME280;30159;49.316;8.558;2022-08-19T04:53:39;99950.03;;;21.17;95.71
44457;BME280;30159;49.316;8.558;2022-08-19T04:56:08;99924.56;;;20.97;95.45
44457;BME280;30159;49.316;8.558;2022-08-19T04:58:36;99950.97;;;21.25;95.63
44457;BME280;30159;49.316;8.558;2022-08-19T05:01:04;99954.59;;;21.29;95.68
44457;BME280;30159;49.316;8.558;2022-08-19T05:03:31;99950.31;;;21.32;95.39
44457;BME280;30159;49.316;8.558;2022-08-19T05:06:04;99951.63;;;21.38;95.04
44457;BME280;30159;49.316;8.558;2022-08-19T05:08:32;99939.34;;;21.32;94.88
44457;BME280;30159;49.316;8.558;2022-08-19T05:11:00;99914.75;;;21.16;94.58
44457;BME280;30159;49.316;8.558;2022-08-19T05:13:26;99973.06;;;21.52;94.47
44457;BME280;30159;49.316;8.558;2022-08-19T05:15:55;99977.88;;;21.58;93.81
44457;BME280;30159;49.316;8.558;2022-08-19T05:18:23;99980.91;;;21.73;92.99
44457;BME280;30159;49.316;8.558;2022-08-19T05:21:09;99976.09;;;21.89;92.18
44457;BME280;30159;49.316;8.558;2022-08-19T05:23:53;99972.84;;;22.06;91.49
44457;BME280;30159;49.316;8.558;2022-08-19T05:26:20;99969.84;;;22.15;90.24
44457;BME280;30159;49.316;8.558;2022-08-19T05:28:46;99974.38;;;22.27;89.77
44457;BME280;30159;49.316;8.558;2022-08-19T05:31:13;99978.09;;;22.38;88.95
44457;BME280;30159;49.316;8.558;2022-08-19T05:33:41;99987.16;;;22.69;87.24
44457;BME280;30159;49.316;8.558;2022-08-19T05:36:07;100004.44;;;22.69;87.01
44457;BME280;30159;49.316;8.558;2022-08-19T05:38:34;100002.44;;;22.66;87.49
44457;BME280;30159;49.316;8.558;2022-08-19T05:41:06;99996.31;;;22.50;88.01
44457;BME280;30159;49.316;8.558;2022-08-19T05:43:33;100007.00;;;22.55;87.88
44457;BME280;30159;49.316;8.558;2022-08-19T05:46:00;100016.59;;;22.42;88.42
44457;BME280;30159;49.316;8.558;2022-08-19T05:48:26;100032.19;;;22.34;89.16
44457;BME280;30159;49.316;8.558;2022-08-19T05:50:54;100025.91;;;22.34;89.50
44457;BME280;30159;49.316;8.558;2022-08-19T05:53:22;100027.13;;;22.36;89.02
44457;BME280;30159;49.316;8.558;2022-08-19T05:55:48;100026.34;;;22.36;89.39
44457;BME280;30159;49.316;8.558;2022-08-19T05:58:15;100032.09;;;22.54;89.49
44457;BME280;30159;49.316;8.558;2022-08-19T06:00:43;100026.59;;;22.80;87.37
44457;BME280;30159;49.316;8.558;2022-08-19T06:03:10;100034.19;;;22.90;86.46
44457;BME280;30159;49.316;8.558;2022-08-19T06:05:36;100041.66;;;22.90;86.29
44457;BME280;30159;49.316;8.558;2022-08-19T06:08:04;100041.84;;;23.01;86.54
44457;BME280;30159;49.316;8.558;2022-08-19T06:10:32;100047.53;;;23.15;85.53
44457;BME280;30159;49.316;8.558;2022-08-19T06:12:59;100049.69;;;23.29;85.41
44457;BME280;30159;49.316;8.558;2022-08-19T06:15:25;100054.16;;;23.41;85.53
44457;BME280;30159;49.316;8.558;2022-08-19T06:17:53;100046.63;;;23.38;84.30
44457;BME280;30159;49.316;8.558;2022-08-19T06:20:20;100041.88;;;23.34;85.63
44457;BME280;30159;49.316;8.558;2022-08-19T06:22:48;100049.69;;;23.63;84.40
44457;BME280;30159;49.316;8.558;2022-08-19T06:25:18;100058.50;;;23.75;82.84
44457;BME280;30159;49.316;8.558;2022-08-19T06:27:44;100053.97;;;23.60;83.43
44457;BME280;30159;49.316;8.558;2022-08-19T06:30:12;100062.84;;;23.43;84.14
44457;BME280;30159;49.316;8.558;2022-08-19T06:32:39;100055.88;;;23.22;85.38
44457;BME280;30159;49.316;8.558;2022-08-19T06:35:06;100051.94;;;23.20;85.73
44457;BME280;30159;49.316;8.558;2022-08-19T06:37:33;100060.88;;;23.13;84.69
44457;BME280;30159;49.316;8.558;2022-08-19T06:40:00;100058.09;;;22.86;86.33
44457;BME280;30159;49.316;8.558;2022-08-19T06:42:27;100057.28;;;22.82;86.85
44457;BME280;30159;49.316;8.558;2022-08-19T06:44:54;100064.47;;;22.90;86.40
44457;BME280;30159;49.316;8.558;2022-08-19T06:47:21;100030.41;;;22.72;86.48
44457;BME280;30159;49.316;8.558;2022-08-19T06:49:47;100058.38;;;23.01;85.64
44457;BME280;30159;49.316;8.558;2022-08-19T06:52:14;100079.38;;;23.16;85.47
44457;BME280;30159;49.316;8.558;2022-08-19T06:54:41;100070.06;;;23.24;84.80
44457;BME280;30159;49.316;8.558;2022-08-19T06:57:08;100073.72;;;23.35;84.24
44457;BME280;30159;49.316;8.558;2022-08-19T06:59:41;100077.38;;;23.43;83.90
44457;BME280;30159;49.316;8.558;2022-08-19T07:02:08;100073.84;;;23.43;84.01
44457;BME280;30159;49.316;8.558;2022-08-19T07:04:35;100004.16;;;23.05;83.45
44457;BME280;30159;49.316;8.558;2022-08-19T07:07:05;100067.59;;;23.46;83.08
44457;BME280;30159;49.316;8.558;2022-08-19T07:09:33;100075.00;;;23.42;83.75
44457;BME280;30159;49.316;8.558;2022-08-19T07:12:03;100067.94;;;23.44;83.67
44457;BME280;30159;49.316;8.558;2022-08-19T07:14:30;100067.22;;;23.47;83.51
44457;BME280;30159;49.316;8.558;2022-08-19T07:16:58;100071.50;;;23.45;83.71
44457;BME280;30159;49.316;8.558;2022-08-19T07:19:25;100072.56;;;23.37;83.96
44457;BME280;30159;49.316;8.558;2022-08-19T07:21:53;100066.75;;;23.42;83.84
44457;BME280;30159;49.316;8.558;2022-08-19T07:24:22;100068.22;;;23.35;84.16
44457;BME280;30159;49.316;8.558;2022-08-19T07:26:50;100045.38;;;23.31;83.39
44457;BME280;30159;49.316;8.558;2022-08-19T07:29:18;100067.69;;;23.56;82.91
44457;BME280;30159;49.316;8.558;2022-08-19T07:31:48;100067.06;;;23.70;82.86
44457;BME280;30159;49.316;8.558;2022-08-19T07:34:17;100065.44;;;23.66;82.65
44457;BME280;30159;49.316;8.558;2022-08-19T07:36:44;100069.78;;;23.67;82.90
44457;BME280;30159;49.316;8.558;2022-08-19T07:39:14;100059.91;;;23.62;82.28
44457;BME280;30159;49.316;8.558;2022-08-19T07:41:41;100063.00;;;23.57;82.89
44457;BME280;30159;49.316;8.558;2022-08-19T07:44:09;100068.44;;;23.50;83.08
44457;BME280;30159;49.316;8.558;2022-08-19T07:46:39;100070.41;;;23.53;83.25
44457;BME280;30159;49.316;8.558;2022-08-19T07:49:07;100070.16;;;23.65;82.86
44457;BME280;30159;49.316;8.558;2022-08-19T07:51:47;100072.91;;;23.65;82.59
44457;BME280;30159;49.316;8.558;2022-08-19T07:54:14;100061.63;;;23.74;82.29
44457;BME280;30159;49.316;8.558;2022-08-19T07:56:41;100053.56;;;23.58;82.87
44457;BME280;30159;49.316;8.558;2022-08-19T07:59:07;100057.69;;;23.75;82.39
44457;BME280;30159;49.316;8.558;2022-08-19T08:01:34;100070.75;;;23.82;82.58
44457;BME280;30159;49.316;8.558;2022-08-19T08:04:01;100068.97;;;24.00;81.38
44457;BME280;30159;49.316;8.558;2022-08-19T08:06:46;100065.13;;;24.08;81.16
44457;BME280;30159;49.316;8.558;2022-08-19T08:09:33;100066.78;;;24.16;80.80
44457;BME280;30159;49.316;8.558;2022-08-19T08:12:03;100061.31;;;24.20;80.59
44457;BME280;30159;49.316;8.558;2022-08-19T08:14:34;100067.38;;;24.40;80.53
44457;BME280;30159;49.316;8.558;2022-08-19T08:17:02;100063.59;;;24.55;78.85
44457;BME280;30159;49.316;8.558;2022-08-19T08:19:30;100061.63;;;24.56;79.48
44457;BME280;30159;49.316;8.558;2022-08-19T08:21:59;100067.13;;;24.52;79.38
44457;BME280;30159;49.316;8.558;2022-08-19T08:24:27;100063.13;;;24.50;79.26
44457;BME280;30159;49.316;8.558;2022-08-19T08:26:54;100062.16;;;24.76;79.15
44457;BME280;30159;49.316;8.558;2022-08-19T08:29:21;100061.56;;;25.08;76.71
44457;BME280;30159;49.316;8.558;2022-08-19T08:31:47;100054.13;;;25.15;76.18
44457;BME280;30159;49.316;8.558;2022-08-19T08:34:14;100059.78;;;25.48;74.51
44457;BME280;30159;49.316;8.558;2022-08-19T08:36:43;100066.84;;;25.34;74.44
44457;BME280;30159;49.316;8.558;2022-08-19T08:39:14;100070.09;;;25.61;73.29
44457;BME280;30159;49.316;8.558;2022-08-19T08:41:46;100076.41;;;25.58;71.98
44457;BME280;30159;49.316;8.558;2022-08-19T08:44:21;100081.13;;;25.54;73.82
44457;BME280;30159;49.316;8.558;2022-08-19T08:46:50;100080.84;;;25.92;71.37
44457;BME280;30159;49.316;8.558;2022-08-19T08:49:32;100071.81;;;26.27;70.53
44457;BME280;30159;49.316;8.558;2022-08-19T08:52:03;100065.50;;;26.05;69.76
44457;BME280;30159;49.316;8.558;2022-08-19T08:54:35;100063.91;;;26.15;69.78
44457;BME280;30159;49.316;8.558;2022-08-19T08:57:06;100068.16;;;25.76;69.91
44457;BME280;30159;49.316;8.558;2022-08-19T08:59:36;100074.44;;;25.62;70.47
44457;BME280;30159;49.316;8.558;2022-08-19T09:02:06;100073.72;;;25.83;70.30
44457;BME280;30159;49.316;8.558;2022-08-19T09:04:34;100070.16;;;25.79;69.67
44457;BME280;30159;49.316;8.558;2022-08-19T09:07:13;100068.56;;;25.71;69.66
44457;BME280;30159;49.316;8.558;2022-08-19T09:09:48;100078.03;;;25.84;68.87
44457;BME280;30159;49.316;8.558;2022-08-19T09:12:20;100071.81;;;25.95;68.87
44457;BME280;30159;49.316;8.558;2022-08-19T09:14:52;100073.28;;;25.74;68.75
44457;BME280;30159;49.316;8.558;2022-08-19T09:17:22;100071.78;;;25.91;67.62
44457;BME280;30159;49.316;8.558;2022-08-19T09:19:57;100065.47;;;25.91;68.43
44457;BME280;30159;49.316;8.558;2022-08-19T09:22:25;100069.84;;;26.10;68.96
44457;BME280;30159;49.316;8.558;2022-08-19T09:24:54;100071.81;;;26.13;68.76
44457;BME280;30159;49.316;8.558;2022-08-19T09:27:22;100070.63;;;26.17;68.45
44457;BME280;30159;49.316;8.558;2022-08-19T09:29:50;100073.00;;;26.12;67.71
44457;BME280;30159;49.316;8.558;2022-08-19T09:32:17;100061.16;;;26.04;67.58
44457;BME280;30159;49.316;8.558;2022-08-19T09:34:44;100006.13;;;25.41;68.29
44457;BME280;30159;49.316;8.558;2022-08-19T09:37:10;100025.94;;;25.83;67.95
44457;BME280;30159;49.316;8.558;2022-08-19T09:39:37;100069.44;;;26.07;67.61
44457;BME280;30159;49.316;8.558;2022-08-19T09:42:07;100071.78;;;25.98;67.88
44457;BME280;30159;49.316;8.558;2022-08-19T09:44:37;100062.31;;;25.96;68.26
44457;BME280;30159;49.316;8.558;2022-08-19T09:47:04;100071.41;;;26.03;68.42
44457;BME280;30159;49.316;8.558;2022-08-19T09:49:31;100055.22;;;26.09;69.13
44457;BME280;30159;49.316;8.558;2022-08-19T09:51:57;100061.97;;;26.37;67.94
44457;BME280;30159;49.316;8.558;2022-08-19T09:54:24;100059.97;;;26.52;66.29
44457;BME280;30159;49.316;8.558;2022-08-19T09:56:51;100071.44;;;26.61;66.32
44457;BME280;30159;49.316;8.558;2022-08-19T09:59:19;100071.44;;;26.57;66.57
44457;BME280;30159;49.316;8.558;2022-08-19T10:01:46;100056.81;;;26.57;66.92
44457;BME280;30159;49.316;8.558;2022-08-19T10:04:12;100052.81;;;26.83;65.70
44457;BME280;30159;49.316;8.558;2022-08-19T10:06:39;100051.28;;;26.85;64.86
44457;BME280;30159;49.316;8.558;2022-08-19T10:09:08;100071.00;;;26.91;62.83
44457;BME280;30159;49.316;8.558;2022-08-19T10:11:36;100072.97;;;26.94;63.50
44457;BME280;30159;49.316;8.558;2022-08-19T10:14:04;100072.19;;;26.97;63.86
44457;BME280;30159;49.316;8.558;2022-08-19T10:16:34;100067.78;;;27.14;64.18
44457;BME280;30159;49.316;8.558;2022-08-19T10:19:02;100065.03;;;27.14;63.81
44457;BME280;30159;49.316;8.558;2022-08-19T10:21:30;100074.09;;;27.29;63.71
44457;BME280;30159;49.316;8.558;2022-08-19T10:23:59;100074.38;;;27.52;62.86
44457;BME280;30159;49.316;8.558;2022-08-19T10:26:29;100081.09;;;27.55;62.52
44457;BME280;30159;49.316;8.558;2022-08-19T10:28:57;100071.75;;;27.27;63.92
44457;BME280;30159;49.316;8.558;2022-08-19T10:31:25;100076.50;;;27.05;64.89
44457;BME280;30159;49.316;8.558;2022-08-19T10:33:53;100063.88;;;27.04;64.96
44457;BME280;30159;49.316;8.558;2022-08-19T10:36:26;100075.41;;;26.63;66.18
44457;BME280;30159;49.316;8.558;2022-08-19T10:38:55;100065.94;;;26.64;66.12
44457;BME280;30159;49.316;8.558;2022-08-19T10:41:25;100027.56;;;26.52;65.37
44457;BME280;30159;49.316;8.558;2022-08-19T10:43:53;100069.03;;;26.84;65.65
44457;BME280;30159;49.316;8.558;2022-08-19T10:46:22;100067.84;;;26.96;65.33
44457;BME280;30159;49.316;8.558;2022-08-19T10:48:50;100048.38;;;27.28;64.44
44457;BME280;30159;49.316;8.558;2022-08-19T10:51:18;100058.88;;;27.66;62.81
44457;BME280;30159;49.316;8.558;2022-08-19T10:54:02;100053.28;;;27.84;63.09
44457;BME280;30159;49.316;8.558;2022-08-19T10:56:30;100061.16;;;27.89;61.47
44457;BME280;30159;49.316;8.558;2022-08-19T10:59:15;100056.22;;;27.44;62.58
44457;BME280;30159;49.316;8.558;2022-08-19T11:01:43;100049.59;;;27.27;64.12
44457;BME280;30159;49.316;8.558;2022-08-19T11:04:10;100045.56;;;27.36;63.26
44457;BME280;30159;49.316;8.558;2022-08-19T11:06:40;100020.97;;;27.52;63.35
44457;BME280;30159;49.316;8.558;2022-08-19T11:09:09;100031.78;;;27.99;62.35
44457;BME280;30159;49.316;8.558;2022-08-19T11:11:36;100015.22;;;27.88;61.44
44457;BME280;30159;49.316;8.558;2022-08-19T11:14:05;100022.19;;;28.10;61.63
44457;BME280;30159;49.316;8.558;2022-08-19T11:16:32;100008.63;;;28.23;61.40
44457;BME280;30159;49.316;8.558;2022-08-19T11:18:59;100006.38;;;28.52;61.45
44457;BME280;30159;49.316;8.558;2022-08-19T11:21:28;100006.00;;;28.02;61.15
44457;BME280;30159;49.316;8.558;2022-08-19T11:24:00;100018.13;;;27.63;62.59
44457;BME280;30159;49.316;8.558;2022-08-19T11:26:28;100017.78;;;27.50;62.53
44457;BME280;30159;49.316;8.558;2022-08-19T11:28:56;100016.59;;;27.58;60.81
44457;BME280;30159;49.316;8.558;2022-08-19T11:31:25;100014.94;;;27.64;61.40
44457;BME280;30159;49.316;8.558;2022-08-19T11:33:52;99988.44;;;27.60;62.38
44457;BME280;30159;49.316;8.558;2022-08-19T11:36:19;100003.22;;;28.05;61.71
44457;BME280;30159;49.316;8.558;2022-08-19T11:38:47;100008.25;;;28.17;60.21
44457;BME280;30159;49.316;8.558;2022-08-19T11:41:16;100001.59;;;28.08;60.98
44457;BME280;30159;49.316;8.558;2022-08-19T11:43:44;99988.56;;;28.01;60.55
44457;BME280;30159;49.316;8.558;2022-08-19T11:46:12;100000.97;;;28.34;60.62
44457;BME280;30159;49.316;8.558;2022-08-19T11:48:39;100013.53;;;28.50;58.62
44457;BME280;30159;49.316;8.558;2022-08-19T11:51:08;99940.31;;;27.95;59.33
44457;BME280;30159;49.316;8.558;2022-08-19T11:53:36;99998.06;;;28.52;58.92
44457;BME280;30159;49.316;8.558;2022-08-19T11:56:04;100006.97;;;28.29;59.80
44457;BME280;30159;49.316;8.558;2022-08-19T11:58:33;100000.06;;;28.03;59.72
44457;BME280;30159;49.316;8.558;2022-08-19T12:01:00;99999.16;;;28.17;58.83
44457;BME280;30159;49.316;8.558;2022-08-19T12:03:27;100001.66;;;28.46;58.02
44457;BME280;30159;49.316;8.558;2022-08-19T12:05:55;100001.91;;;28.62;57.59
44457;BME280;30159;49.316;8.558;2022-08-19T12:08:22;99991.09;;;28.30;57.94
44457;BME280;30159;49.316;8.558;2022-08-19T12:10:48;100004.56;;;28.31;58.06
44457;BME280;30159;49.316;8.558;2022-08-19T12:13:15;100002.50;;;28.39;57.22
44457;BME280;30159;49.316;8.558;2022-08-19T12:15:46;100003.91;;;28.62;54.85
44457;BME280;30159;49.316;8.558;2022-08-19T12:18:13;100004.94;;;28.33;53.83
44457;BME280;30159;49.316;8.558;2022-08-19T12:20:41;100001.66;;;28.46;54.75
44457;BME280;30159;49.316;8.558;2022-08-19T12:23:11;100005.84;;;28.65;54.37
44457;BME280;30159;49.316;8.558;2022-08-19T12:25:43;99998.00;;;28.94;53.68
44457;BME280;30159;49.316;8.558;2022-08-19T12:28:17;100000.25;;;29.37;53.47
44457;BME280;30159;49.316;8.558;2022-08-19T12:30:45;100010.38;;;29.51;52.52
44457;BME280;30159;49.316;8.558;2022-08-19T12:33:12;100010.72;;;29.56;52.74
44457;BME280;30159;49.316;8.558;2022-08-19T12:35:39;100008.50;;;29.44;52.95
44457;BME280;30159;49.316;8.558;2022-08-19T12:38:06;100018.03;;;29.43;53.04
44457;BME280;30159;49.316;8.558;2022-08-19T12:40:33;100018.72;;;29.24;53.68
44457;BME280;30159;49.316;8.558;2022-08-19T12:42:59;100022.91;;;29.01;52.40
44457;BME280;30159;49.316;8.558;2022-08-19T12:45:26;99959.75;;;28.74;52.65
44457;BME280;30159;49.316;8.558;2022-08-19T12:47:54;100009.88;;;28.98;52.64
44457;BME280;30159;49.316;8.558;2022-08-19T12:50:21;100014.63;;;29.32;52.43
44457;BME280;30159;49.316;8.558;2022-08-19T12:52:48;100005.03;;;29.67;50.63
44457;BME280;30159;49.316;8.558;2022-08-19T12:55:14;100004.03;;;29.81;49.94
44457;BME280;30159;49.316;8.558;2022-08-19T12:57:43;100006.66;;;29.34;50.62
44457;BME280;30159;49.316;8.558;2022-08-19T13:00:13;100017.25;;;29.12;50.52
44457;BME280;30159;49.316;8.558;2022-08-19T13:02:42;100012.44;;;29.16;50.45